Time;durP1;ratioP1;P1;durP2;ratioP2;P2;SDS_P1;SDS_P2;PMS_P1;PMS_P2;Temp;Humidity;BMP_temperature;BMP_pressure;BME280_temperature;BME280_humidity;BME280_pressure;Samples;Min_cycle;Max_cycle;Signal;HPM_P1;HPM_P2
2022/03/30 00:01:32;;;;;;;;;;;10.80;99.90;;;;;;5063584;28;20227;-72
2022/03/30 00:03:58;;;;;;;;;;;10.80;99.90;;;;;;5063910;28;19928;-72
2022/03/30 00:06:25;;;;;;;;;;;10.70;99.90;;;;;;5063316;28;19924;-74
2022/03/30 00:08:51;;;;;;;;;;;10.70;99.90;;;;;;5063466;28;19935;-72
2022/03/30 00:11:19;;;;;;;;;;;10.60;99.90;;;;;;5063606;28;19920;-72
2022/03/30 00:13:46;;;;;;;;;;;10.50;99.90;;;;;;5063665;28;20226;-71
2022/03/30 00:16:12;;;;;;;;;;;10.40;99.90;;;;;;5063095;28;19921;-71
2022/03/30 00:18:39;;;;;;;;;;;10.30;99.90;;;;;;5063218;28;19924;-71
2022/03/30 00:21:06;;;;;;;;;;;10.30;99.90;;;;;;5063347;28;19921;-72
2022/03/30 00:23:33;;;;;;;;;;;10.20;99.90;;;;;;5063283;28;20266;-71
2022/03/30 00:25:59;;;;;;;;;;;10.20;99.90;;;;;;5063007;28;19927;-72
2022/03/30 00:28:28;;;;;;;;;;;10.10;99.90;;;;;;5063117;28;19921;-72
2022/03/30 00:30:55;;;;;;;;;;;10.00;99.90;;;;;;5063212;28;19920;-72
2022/03/30 00:33:21;;;;;;;;;;;10.00;99.90;;;;;;5063464;28;20172;-72
2022/03/30 00:35:48;;;;;;;;;;;10.00;99.90;;;;;;5062028;28;19928;-72
2022/03/30 00:38:15;;;;;;;;;;;10.00;99.90;;;;;;5063174;28;19924;-71
2022/03/30 00:40:42;;;;;;;;;;;10.00;99.90;;;;;;5062961;28;20189;-71
2022/03/30 00:43:08;;;;;;;;;;;9.90;99.90;;;;;;5061061;28;19920;-72
2022/03/30 00:45:36;;;;;;;;;;;9.90;99.90;;;;;;5062585;28;19921;-72
2022/03/30 00:48:03;;;;;;;;;;;9.90;99.90;;;;;;5062687;28;20151;-71
2022/03/30 00:50:29;;;;;;;;;;;9.90;99.90;;;;;;5062842;28;19928;-71
2022/03/30 00:52:56;;;;;;;;;;;9.90;99.90;;;;;;5062518;28;19927;-74
2022/03/30 00:55:24;;;;;;;;;;;9.90;99.90;;;;;;5062600;28;19924;-71
2022/03/30 00:57:52;;;;;;;;;;;9.90;99.90;;;;;;5062788;28;19967;-72
2022/03/30 01:00:19;;;;;;;;;;;9.80;99.90;;;;;;5062988;28;19988;-73
2022/03/30 01:02:49;;;;;;;;;;;9.70;99.90;;;;;;5058613;28;19984;-71
2022/03/30 01:05:15;;;;;;;;;;;9.70;99.90;;;;;;5062538;28;19928;-72
2022/03/30 01:07:42;;;;;;;;;;;9.70;99.90;;;;;;5063052;28;19927;-71
2022/03/30 01:10:10;;;;;;;;;;;9.60;99.90;;;;;;5062454;28;20208;-73
2022/03/30 01:12:39;;;;;;;;;;;9.60;99.90;;;;;;5062489;28;20247;-71
2022/03/30 01:15:06;;;;;;;;;;;9.50;99.90;;;;;;5062582;28;20144;-71
2022/03/30 01:17:33;;;;;;;;;;;9.50;99.90;;;;;;5062163;28;19943;-71
2022/03/30 01:20:01;;;;;;;;;;;9.50;99.90;;;;;;5062397;28;19928;-71
2022/03/30 01:22:28;;;;;;;;;;;9.50;99.90;;;;;;5062453;28;20346;-72
2022/03/30 01:24:55;;;;;;;;;;;9.50;99.90;;;;;;5062655;28;19939;-72
2022/03/30 01:27:22;;;;;;;;;;;9.50;99.90;;;;;;5062501;28;19921;-71
2022/03/30 01:32:34;;;;;;;;;;;9.60;99.90;;;;;;5062697;28;19955;-71
2022/03/30 01:35:03;;;;;;;;;;;9.60;99.90;;;;;;5062449;28;19920;-72
2022/03/30 01:37:31;;;;;;;;;;;9.60;99.90;;;;;;5062488;28;20119;-72
2022/03/30 01:39:59;;;;;;;;;;;9.50;99.90;;;;;;5044347;28;19921;-72
2022/03/30 01:42:26;;;;;;;;;;;9.50;99.90;;;;;;5059128;28;19927;-72
2022/03/30 01:44:53;;;;;;;;;;;9.50;99.90;;;;;;5062310;28;19921;-71
2022/03/30 01:47:20;;;;;;;;;;;9.50;99.90;;;;;;5062148;28;19921;-74
2022/03/30 01:49:46;;;;;;;;;;;9.50;99.90;;;;;;5066147;28;20212;-72
2022/03/30 01:52:15;;;;;;;;;;;9.50;99.90;;;;;;5066160;28;19921;-72
2022/03/30 01:54:44;;;;;;;;;;;9.40;99.90;;;;;;5065658;28;19959;-72
2022/03/30 01:57:12;;;;;;;;;;;9.40;99.90;;;;;;5065812;28;19944;-72
2022/03/30 01:59:38;;;;;;;;;;;9.40;99.90;;;;;;5065957;28;20153;-71
2022/03/30 02:02:05;;;;;;;;;;;9.30;99.90;;;;;;5066053;28;19943;-72
2022/03/30 02:04:32;;;;;;;;;;;9.30;99.90;;;;;;5066086;28;19927;-73
2022/03/30 02:07:01;;;;;;;;;;;9.40;99.90;;;;;;5065691;28;19959;-72
2022/03/30 02:09:28;;;;;;;;;;;9.30;99.90;;;;;;5065558;28;19920;-71
2022/03/30 02:11:55;;;;;;;;;;;9.30;99.90;;;;;;5066067;28;19991;-72
2022/03/30 02:14:22;;;;;;;;;;;9.30;99.90;;;;;;5065828;28;19936;-75
2022/03/30 02:16:49;;;;;;;;;;;9.30;99.90;;;;;;5065531;28;19921;-71
2022/03/30 02:19:16;;;;;;;;;;;9.30;99.90;;;;;;5065580;28;19927;-71
2022/03/30 02:21:42;;;;;;;;;;;9.30;99.90;;;;;;5065585;28;19928;-74
2022/03/30 02:24:09;;;;;;;;;;;9.20;99.90;;;;;;5065516;28;19956;-71
2022/03/30 02:26:36;;;;;;;;;;;9.10;99.90;;;;;;5064612;28;19925;-71
2022/03/30 02:29:03;;;;;;;;;;;9.10;99.90;;;;;;5065517;28;19927;-71
2022/03/30 02:31:31;;;;;;;;;;;9.10;99.90;;;;;;5065175;28;19925;-71
2022/03/30 02:33:57;;;;;;;;;;;9.20;99.90;;;;;;5065296;28;19952;-75
2022/03/30 02:36:24;;;;;;;;;;;9.10;99.90;;;;;;5062221;28;19921;-72
2022/03/30 02:38:51;;;;;;;;;;;9.10;99.90;;;;;;5061083;28;19929;-71
2022/03/30 02:41:17;;;;;;;;;;;9.20;99.90;;;;;;5062546;28;20201;-72
2022/03/30 02:43:44;;;;;;;;;;;9.20;99.90;;;;;;5064822;28;19966;-72
2022/03/30 02:46:12;;;;;;;;;;;9.20;99.90;;;;;;5064455;28;19921;-71
2022/03/30 02:48:40;;;;;;;;;;;9.10;99.90;;;;;;5065177;28;19921;-72
2022/03/30 02:51:07;;;;;;;;;;;9.10;99.90;;;;;;5064721;28;19920;-71
2022/03/30 02:53:34;;;;;;;;;;;9.10;99.90;;;;;;5065398;28;19928;-72
2022/03/30 02:56:01;;;;;;;;;;;9.10;99.90;;;;;;5064549;28;19929;-71
2022/03/30 02:58:28;;;;;;;;;;;9.00;99.90;;;;;;5064283;28;19944;-72
2022/03/30 03:00:55;;;;;;;;;;;9.00;99.90;;;;;;5065083;28;19927;-71
2022/03/30 03:03:24;;;;;;;;;;;9.00;99.90;;;;;;5064936;28;19927;-72
2022/03/30 03:05:50;;;;;;;;;;;9.00;99.90;;;;;;5063782;28;19921;-72
2022/03/30 03:08:17;;;;;;;;;;;9.00;99.90;;;;;;5065231;28;19929;-72
2022/03/30 03:10:45;;;;;;;;;;;9.00;99.90;;;;;;5064633;28;19921;-73
2022/03/30 03:13:13;;;;;;;;;;;9.00;99.90;;;;;;5064947;28;19928;-71
2022/03/30 03:15:40;;;;;;;;;;;9.00;99.90;;;;;;5063759;28;19921;-72
2022/03/30 03:18:07;;;;;;;;;;;9.00;99.90;;;;;;5064830;28;19920;-71
2022/03/30 03:20:35;;;;;;;;;;;9.00;99.90;;;;;;5064420;28;19929;-71
2022/03/30 03:23:02;;;;;;;;;;;9.00;99.90;;;;;;5044943;28;19925;-71
2022/03/30 03:25:31;;;;;;;;;;;9.00;99.90;;;;;;5045127;28;20159;-71
2022/03/30 03:27:58;;;;;;;;;;;9.00;99.90;;;;;;5064552;28;20067;-71
2022/03/30 03:30:25;;;;;;;;;;;9.00;99.90;;;;;;5064358;28;19921;-72
2022/03/30 03:32:51;;;;;;;;;;;8.90;99.90;;;;;;5063497;28;20176;-72
2022/03/30 03:35:18;;;;;;;;;;;9.00;99.90;;;;;;5063897;28;20164;-72
2022/03/30 03:37:46;;;;;;;;;;;8.90;99.90;;;;;;5064025;28;19928;-71
2022/03/30 03:40:13;;;;;;;;;;;8.90;99.90;;;;;;5064073;28;19927;-73
2022/03/30 03:42:40;;;;;;;;;;;8.90;99.90;;;;;;5055367;28;19927;-72
2022/03/30 03:45:07;;;;;;;;;;;8.90;99.90;;;;;;5063114;28;19921;-72
2022/03/30 03:47:34;;;;;;;;;;;8.80;99.90;;;;;;5063615;28;20213;-71
2022/03/30 03:50:01;;;;;;;;;;;8.80;99.90;;;;;;5063733;28;19921;-74
2022/03/30 03:52:28;;;;;;;;;;;8.80;99.90;;;;;;5063628;28;19921;-71
2022/03/30 03:54:55;;;;;;;;;;;8.80;99.90;;;;;;5063951;28;19928;-71
2022/03/30 03:57:22;;;;;;;;;;;8.80;99.90;;;;;;5063815;28;20115;-72
2022/03/30 03:59:49;;;;;;;;;;;8.80;99.90;;;;;;5063523;28;19921;-71
2022/03/30 04:02:15;;;;;;;;;;;8.80;99.90;;;;;;5063564;28;19983;-72
2022/03/30 04:04:43;;;;;;;;;;;8.80;99.90;;;;;;5063482;28;19920;-73
2022/03/30 04:07:10;;;;;;;;;;;8.80;99.90;;;;;;5062850;28;20090;-73
2022/03/30 04:09:37;;;;;;;;;;;8.80;99.90;;;;;;5063428;28;19921;-71
2022/03/30 04:12:05;;;;;;;;;;;8.80;99.90;;;;;;5062517;28;20101;-73
2022/03/30 04:14:32;;;;;;;;;;;8.80;99.90;;;;;;5062777;28;19921;-72
2022/03/30 04:16:58;;;;;;;;;;;8.80;99.90;;;;;;5063079;28;19996;-71
2022/03/30 04:19:26;;;;;;;;;;;8.80;99.90;;;;;;5063144;28;19921;-72
2022/03/30 04:21:52;;;;;;;;;;;8.80;99.90;;;;;;5063660;28;19921;-72
2022/03/30 04:24:19;;;;;;;;;;;8.90;99.90;;;;;;5063159;28;19921;-71
2022/03/30 04:26:45;;;;;;;;;;;8.90;99.90;;;;;;5062609;28;19929;-71
2022/03/30 04:29:13;;;;;;;;;;;8.90;99.90;;;;;;5062764;28;19951;-71
2022/03/30 04:31:40;;;;;;;;;;;8.90;99.90;;;;;;5063167;28;20234;-72
2022/03/30 04:34:06;;;;;;;;;;;8.90;99.90;;;;;;5063150;28;19928;-72
2022/03/30 04:36:33;;;;;;;;;;;8.90;99.90;;;;;;5062554;28;19921;-71
2022/03/30 04:39:00;;;;;;;;;;;8.90;99.90;;;;;;5062797;28;19921;-71
2022/03/30 04:41:27;;;;;;;;;;;8.80;99.90;;;;;;5061718;28;19929;-71
2022/03/30 04:43:53;;;;;;;;;;;8.80;99.90;;;;;;5062329;28;19949;-72
2022/03/30 04:46:21;;;;;;;;;;;8.80;99.90;;;;;;5062417;28;20097;-71
2022/03/30 04:48:48;;;;;;;;;;;8.80;99.90;;;;;;5062779;28;20000;-72
2022/03/30 04:51:14;;;;;;;;;;;8.80;99.90;;;;;;5061357;28;19927;-72
2022/03/30 04:53:41;;;;;;;;;;;8.80;99.90;;;;;;5057025;28;20228;-72
2022/03/30 04:56:07;;;;;;;;;;;8.80;99.90;;;;;;5061892;28;20124;-71
2022/03/30 04:58:34;;;;;;;;;;;8.80;99.90;;;;;;5059462;28;20212;-71
2022/03/30 05:01:01;;;;;;;;;;;8.70;99.90;;;;;;5060329;28;19921;-72
2022/03/30 05:03:29;;;;;;;;;;;8.70;99.90;;;;;;5062002;28;19924;-71
2022/03/30 05:05:55;;;;;;;;;;;8.70;99.90;;;;;;5061748;28;19921;-72
2022/03/30 05:08:22;;;;;;;;;;;8.70;99.90;;;;;;5059831;28;19989;-69
2022/03/30 05:10:50;;;;;;;;;;;8.70;99.90;;;;;;5063523;28;19927;-73
2022/03/30 05:13:16;;;;;;;;;;;8.70;99.90;;;;;;5062996;28;19921;-72
2022/03/30 05:15:43;;;;;;;;;;;8.70;99.90;;;;;;5062975;28;19927;-71
2022/03/30 05:18:11;;;;;;;;;;;8.70;99.90;;;;;;5063234;28;20212;-72
2022/03/30 05:20:42;;;;;;;;;;;8.70;99.90;;;;;;5062582;28;19921;-72
2022/03/30 05:23:08;;;;;;;;;;;8.70;99.90;;;;;;5065178;28;19929;-72
2022/03/30 05:25:35;;;;;;;;;;;8.60;99.90;;;;;;5065931;28;19921;-71
2022/03/30 05:28:02;;;;;;;;;;;8.60;99.90;;;;;;5066130;28;20263;-72
2022/03/30 05:30:28;;;;;;;;;;;8.60;99.90;;;;;;5066420;28;19921;-71
2022/03/30 05:32:55;;;;;;;;;;;8.60;99.90;;;;;;5067079;28;19920;-71
2022/03/30 05:35:21;;;;;;;;;;;8.50;99.90;;;;;;5066172;28;19936;-72
2022/03/30 05:37:50;;;;;;;;;;;8.60;99.90;;;;;;5065964;28;19924;-72
2022/03/30 05:40:16;;;;;;;;;;;8.60;99.90;;;;;;5062762;28;20129;-71
2022/03/30 05:42:43;;;;;;;;;;;8.60;99.90;;;;;;5064052;28;20238;-72
2022/03/30 05:45:10;;;;;;;;;;;8.60;99.90;;;;;;5066020;28;19921;-71
2022/03/30 05:47:37;;;;;;;;;;;8.60;99.90;;;;;;5060396;28;19928;-71
2022/03/30 05:50:04;;;;;;;;;;;8.50;99.90;;;;;;5049527;28;19921;-71
2022/03/30 05:52:30;;;;;;;;;;;8.50;99.90;;;;;;5048229;28;19928;-68
2022/03/30 05:54:58;;;;;;;;;;;8.50;99.90;;;;;;5050682;22;19922;-72
2022/03/30 05:57:25;;;;;;;;;;;8.50;99.90;;;;;;5044874;28;19928;-72
2022/03/30 05:59:52;;;;;;;;;;;8.50;99.90;;;;;;5046593;28;19921;-71
2022/03/30 06:02:18;;;;;;;;;;;8.50;99.90;;;;;;5045765;28;20001;-71
2022/03/30 06:04:46;;;;;;;;;;;8.50;99.90;;;;;;5045821;28;19929;-71
2022/03/30 06:07:12;;;;;;;;;;;8.60;99.90;;;;;;5044932;28;19929;-70
2022/03/30 06:09:39;;;;;;;;;;;8.50;99.90;;;;;;5046046;28;19959;-72
2022/03/30 06:12:08;;;;;;;;;;;8.60;99.90;;;;;;5045694;28;19921;-71
2022/03/30 06:14:35;;;;;;;;;;;8.60;99.90;;;;;;5045969;28;19928;-71
2022/03/30 06:17:03;;;;;;;;;;;8.60;99.90;;;;;;5044018;28;19928;-71
2022/03/30 06:19:30;;;;;;;;;;;8.60;99.90;;;;;;5046357;28;19925;-71
2022/03/30 06:21:57;;;;;;;;;;;8.60;99.90;;;;;;5045814;28;19921;-71
2022/03/30 06:24:24;;;;;;;;;;;8.60;99.90;;;;;;5041891;28;19921;-72
2022/03/30 06:26:51;;;;;;;;;;;8.60;99.90;;;;;;5045113;28;19928;-72
2022/03/30 06:29:19;;;;;;;;;;;8.70;99.90;;;;;;5045419;28;19921;-71
2022/03/30 06:31:45;;;;;;;;;;;8.70;99.90;;;;;;5045355;28;19971;-73
2022/03/30 06:34:12;;;;;;;;;;;8.70;99.90;;;;;;5044819;28;20123;-73
2022/03/30 06:36:39;;;;;;;;;;;8.70;99.90;;;;;;5041282;28;19936;-72
2022/03/30 06:39:06;;;;;;;;;;;8.70;99.90;;;;;;5045932;28;20155;-71
2022/03/30 06:41:32;;;;;;;;;;;8.70;99.90;;;;;;5044859;28;19921;-72
2022/03/30 06:43:59;;;;;;;;;;;8.70;99.90;;;;;;5045351;28;19928;-72
2022/03/30 06:46:28;;;;;;;;;;;8.80;99.90;;;;;;5042344;28;19921;-72
2022/03/30 06:48:55;;;;;;;;;;;8.80;99.90;;;;;;5045413;28;19921;-73
2022/03/30 06:51:21;;;;;;;;;;;8.80;99.90;;;;;;5045716;28;19936;-71
2022/03/30 06:53:48;;;;;;;;;;;8.80;99.90;;;;;;5045442;28;19921;-73
2022/03/30 06:56:15;;;;;;;;;;;8.90;99.90;;;;;;5044910;28;19927;-72
2022/03/30 06:58:41;;;;;;;;;;;8.90;99.90;;;;;;5045645;28;19984;-72
2022/03/30 07:01:08;;;;;;;;;;;8.90;99.90;;;;;;5045447;28;19928;-70
2022/03/30 07:03:36;;;;;;;;;;;8.90;99.90;;;;;;5045242;28;19925;-75
2022/03/30 07:06:03;;;;;;;;;;;8.90;99.90;;;;;;5044100;28;20212;-72
2022/03/30 07:11:14;;;;;;;;;;;8.90;99.90;;;;;;5030791;28;20259;-73
2022/03/30 07:13:40;;;;;;;;;;;8.90;99.90;;;;;;5045279;28;20071;-71
2022/03/30 07:16:07;;;;;;;;;;;8.90;99.90;;;;;;5043893;28;19921;-72
2022/03/30 07:18:33;;;;;;;;;;;8.90;99.90;;;;;;5044162;28;19921;-72
2022/03/30 07:21:01;;;;;;;;;;;8.90;99.90;;;;;;5043270;28;20250;-72
2022/03/30 07:23:28;;;;;;;;;;;8.90;99.90;;;;;;5043395;28;19933;-73
2022/03/30 07:25:54;;;;;;;;;;;8.90;99.90;;;;;;5043793;28;19921;-73
2022/03/30 07:28:21;;;;;;;;;;;8.90;99.90;;;;;;5044305;28;20204;-72
2022/03/30 07:30:49;;;;;;;;;;;9.00;99.90;;;;;;5045144;28;19927;-73
2022/03/30 07:33:18;;;;;;;;;;;9.00;99.90;;;;;;5041510;28;19980;-73
2022/03/30 07:35:46;;;;;;;;;;;9.00;99.90;;;;;;5044249;28;19921;-73
2022/03/30 07:38:15;;;;;;;;;;;9.00;99.90;;;;;;5043807;28;19976;-72
2022/03/30 07:40:41;;;;;;;;;;;9.00;99.90;;;;;;5044604;28;19921;-72
2022/03/30 07:43:12;;;;;;;;;;;9.00;99.90;;;;;;5043789;28;19921;-72
2022/03/30 07:45:39;;;;;;;;;;;9.00;99.90;;;;;;5040052;28;19967;-74
2022/03/30 07:48:06;;;;;;;;;;;9.00;99.90;;;;;;5041755;28;20234;-72
2022/03/30 07:50:32;;;;;;;;;;;9.00;99.90;;;;;;5043271;28;19921;-72
2022/03/30 07:52:59;;;;;;;;;;;9.00;99.90;;;;;;5044282;28;19921;-73
2022/03/30 07:55:28;;;;;;;;;;;9.00;99.90;;;;;;5043760;28;20001;-71
2022/03/30 07:57:55;;;;;;;;;;;9.10;99.90;;;;;;5044528;28;20115;-72
2022/03/30 08:00:22;;;;;;;;;;;9.10;99.90;;;;;;5044426;28;19928;-73
2022/03/30 08:02:50;;;;;;;;;;;9.10;99.90;;;;;;5041086;28;19921;-72
2022/03/30 08:05:16;;;;;;;;;;;9.10;99.90;;;;;;5043712;28;19921;-72
2022/03/30 08:07:44;;;;;;;;;;;9.10;99.90;;;;;;5044280;28;20093;-72
2022/03/30 08:10:11;;;;;;;;;;;9.10;99.90;;;;;;5043904;28;19999;-72
2022/03/30 08:12:40;;;;;;;;;;;9.10;99.90;;;;;;5044228;28;19921;-72
2022/03/30 08:15:08;;;;;;;;;;;9.20;99.90;;;;;;5041603;28;19959;-72
2022/03/30 08:17:35;;;;;;;;;;;9.10;99.90;;;;;;5043406;28;19959;-73
2022/03/30 08:20:02;;;;;;;;;;;9.10;99.90;;;;;;5044251;28;19928;-73
2022/03/30 08:22:28;;;;;;;;;;;9.10;99.90;;;;;;5043703;28;19925;-73
2022/03/30 08:24:55;;;;;;;;;;;9.10;99.90;;;;;;5043750;28;19961;-72
2022/03/30 08:27:23;;;;;;;;;;;9.10;99.90;;;;;;5043340;28;20111;-72
2022/03/30 08:29:52;;;;;;;;;;;9.10;99.90;;;;;;5043821;28;19929;-72
2022/03/30 08:32:20;;;;;;;;;;;9.10;99.90;;;;;;5043986;28;19951;-73
2022/03/30 08:34:48;;;;;;;;;;;9.10;99.90;;;;;;5040248;28;19921;-72
2022/03/30 08:37:15;;;;;;;;;;;9.10;99.90;;;;;;5042958;28;19927;-73
2022/03/30 08:39:44;;;;;;;;;;;9.10;99.90;;;;;;5040610;28;20239;-73
2022/03/30 08:42:13;;;;;;;;;;;9.20;99.90;;;;;;5043148;28;19921;-73
2022/03/30 08:44:41;;;;;;;;;;;9.10;99.90;;;;;;5034966;28;19921;-73
2022/03/30 08:47:09;;;;;;;;;;;9.10;99.90;;;;;;5039388;28;19948;-72
2022/03/30 08:49:37;;;;;;;;;;;9.10;99.90;;;;;;5043607;28;19925;-73
2022/03/30 08:52:04;;;;;;;;;;;9.10;99.90;;;;;;5043566;28;19967;-71
2022/03/30 08:54:31;;;;;;;;;;;9.20;99.90;;;;;;5043117;28;19928;-70
2022/03/30 08:56:58;;;;;;;;;;;9.10;99.90;;;;;;5042932;28;19927;-72
2022/03/30 08:59:25;;;;;;;;;;;9.10;99.90;;;;;;5043516;28;19921;-71
2022/03/30 09:01:54;;;;;;;;;;;9.00;99.90;;;;;;5043162;28;19921;-72
2022/03/30 09:04:22;;;;;;;;;;;9.00;99.90;;;;;;5043194;28;19925;-72
2022/03/30 09:06:51;;;;;;;;;;;9.10;99.90;;;;;;5042201;28;20119;-72
2022/03/30 09:09:27;;;;;;;;;;;9.00;99.90;;;;;;5043358;28;19921;-72
2022/03/30 09:11:55;;;;;;;;;;;9.00;99.90;;;;;;5043199;28;19929;-72
2022/03/30 09:14:22;;;;;;;;;;;9.00;99.90;;;;;;5043079;28;19925;-72
2022/03/30 09:16:50;;;;;;;;;;;9.10;99.90;;;;;;5042658;28;19928;-71
2022/03/30 09:19:18;;;;;;;;;;;9.00;99.90;;;;;;5043042;28;20279;-72
2022/03/30 09:21:46;;;;;;;;;;;9.00;99.90;;;;;;5043199;28;19921;-69
2022/03/30 09:24:14;;;;;;;;;;;9.00;99.90;;;;;;5042840;28;19928;-69
2022/03/30 09:26:41;;;;;;;;;;;9.00;99.90;;;;;;5042553;28;19983;-70
2022/03/30 09:29:08;;;;;;;;;;;9.10;99.90;;;;;;5042847;28;19921;-68
2022/03/30 09:31:35;;;;;;;;;;;9.20;99.90;;;;;;5042979;28;19921;-70
2022/03/30 09:34:02;;;;;;;;;;;9.20;99.90;;;;;;5039042;28;19921;-70
2022/03/30 09:36:29;;;;;;;;;;;9.20;99.90;;;;;;5040369;28;19925;-71
2022/03/30 09:38:58;;;;;;;;;;;9.30;99.90;;;;;;5041735;28;19929;-70
2022/03/30 09:41:24;;;;;;;;;;;9.30;99.90;;;;;;5042762;28;19921;-69
2022/03/30 09:44:01;;;;;;;;;;;9.30;99.90;;;;;;5042991;28;19928;-70
2022/03/30 09:46:28;;;;;;;;;;;9.40;99.90;;;;;;5042441;28;19980;-70
2022/03/30 09:48:55;;;;;;;;;;;9.50;99.90;;;;;;5042921;28;19927;-70
2022/03/30 09:51:22;;;;;;;;;;;9.50;99.90;;;;;;5042624;28;20014;-70
2022/03/30 09:53:49;;;;;;;;;;;9.50;99.90;;;;;;5042697;28;19921;-70
2022/03/30 09:56:17;;;;;;;;;;;9.60;99.90;;;;;;5042052;28;20108;-70
2022/03/30 09:58:44;;;;;;;;;;;9.60;99.90;;;;;;5042727;28;20230;-71
2022/03/30 10:01:13;;;;;;;;;;;9.60;99.90;;;;;;5042798;28;19921;-70
2022/03/30 10:03:42;;;;;;;;;;;9.70;99.90;;;;;;5042924;28;19928;-70
2022/03/30 10:06:09;;;;;;;;;;;9.70;99.90;;;;;;5041833;28;20230;-70
2022/03/30 10:08:36;;;;;;;;;;;9.80;99.90;;;;;;5043330;28;19968;-70
2022/03/30 10:11:03;;;;;;;;;;;9.80;99.90;;;;;;5046271;28;19921;-71
2022/03/30 10:13:31;;;;;;;;;;;9.80;99.90;;;;;;5046469;28;19921;-70
2022/03/30 10:15:59;;;;;;;;;;;9.70;99.90;;;;;;5045745;28;19921;-70
2022/03/30 10:18:25;;;;;;;;;;;9.70;99.90;;;;;;5046221;28;19922;-69
2022/03/30 10:21:03;;;;;;;;;;;9.70;99.90;;;;;;5046354;28;19921;-71
2022/03/30 10:23:34;;;;;;;;;;;9.70;99.90;;;;;;5045993;28;19927;-71
2022/03/30 10:26:04;;;;;;;;;;;9.70;99.90;;;;;;5042914;28;19920;-70
2022/03/30 10:28:48;;;;;;;;;;;9.70;99.90;;;;;;5046038;28;19933;-71
2022/03/30 10:31:14;;;;;;;;;;;9.80;99.90;;;;;;5045946;28;19921;-70
2022/03/30 10:33:44;;;;;;;;;;;9.80;99.90;;;;;;5045706;28;19921;-71
2022/03/30 10:36:24;;;;;;;;;;;9.80;99.90;;;;;;5045297;28;19921;-71
2022/03/30 10:39:11;;;;;;;;;;;9.80;99.90;;;;;;5045182;28;19921;-70
2022/03/30 10:41:50;;;;;;;;;;;9.80;99.90;;;;;;5036347;28;19925;-71
2022/03/30 10:44:42;;;;;;;;;;;9.80;99.90;;;;;;5025603;28;19921;-71
2022/03/30 10:47:09;;;;;;;;;;;9.80;99.90;;;;;;5025576;28;19925;-69
2022/03/30 10:49:44;;;;;;;;;;;9.80;99.90;;;;;;5025791;28;19921;-71
2022/03/30 10:52:40;;;;;;;;;;;9.80;99.90;;;;;;5025600;28;20148;-71
2022/03/30 10:55:25;;;;;;;;;;;9.80;99.90;;;;;;4964947;29;20240;-71
2022/03/30 10:57:53;;;;;;;;;;;9.80;99.90;;;;;;5018885;28;19921;-72
2022/03/30 11:00:22;;;;;;;;;;;9.80;99.90;;;;;;5025642;28;19921;-71
2022/03/30 11:02:48;;;;;;;;;;;9.80;99.90;;;;;;5025711;28;19922;-71
2022/03/30 11:05:17;;;;;;;;;;;9.90;99.90;;;;;;5024813;28;19927;-70
2022/03/30 11:07:43;;;;;;;;;;;9.90;99.90;;;;;;5025604;28;19989;-71
2022/03/30 11:10:17;;;;;;;;;;;9.90;99.90;;;;;;5035558;28;20116;-71
2022/03/30 11:13:00;;;;;;;;;;;9.90;99.90;;;;;;5045070;28;19928;-70
2022/03/30 11:15:28;;;;;;;;;;;9.90;99.90;;;;;;5043269;28;19921;-71
2022/03/30 11:18:00;;;;;;;;;;;9.90;99.90;;;;;;5043644;28;20327;-71
2022/03/30 11:20:26;;;;;;;;;;;9.90;99.90;;;;;;5043934;28;19921;-71
2022/03/30 11:22:53;;;;;;;;;;;9.90;99.90;;;;;;5045068;28;20232;-71
2022/03/30 11:25:20;;;;;;;;;;;9.80;99.90;;;;;;5044448;28;19950;-70
2022/03/30 11:28:12;;;;;;;;;;;9.80;99.90;;;;;;5044820;28;19921;-71
2022/03/30 11:30:43;;;;;;;;;;;9.80;99.90;;;;;;5044992;28;19921;-71
2022/03/30 11:33:19;;;;;;;;;;;9.80;99.90;;;;;;5044723;28;20195;-71
2022/03/30 11:35:48;;;;;;;;;;;9.80;99.90;;;;;;5044538;28;19936;-70
2022/03/30 11:38:21;;;;;;;;;;;9.90;99.90;;;;;;5045206;28;19920;-71
2022/03/30 11:40:48;;;;;;;;;;;9.80;99.90;;;;;;5045147;28;20333;-70
2022/03/30 11:43:16;;;;;;;;;;;9.80;99.90;;;;;;5045206;28;20212;-72
2022/03/30 11:45:44;;;;;;;;;;;9.80;99.90;;;;;;5040343;28;20117;-71
2022/03/30 11:48:12;;;;;;;;;;;9.80;99.90;;;;;;5044538;28;19921;-71
2022/03/30 11:50:39;;;;;;;;;;;9.80;99.90;;;;;;5044364;28;20231;-70
2022/03/30 11:53:07;;;;;;;;;;;9.80;99.90;;;;;;5044610;28;19987;-68
2022/03/30 11:55:36;;;;;;;;;;;9.80;99.90;;;;;;5044273;28;19928;-69
2022/03/30 11:58:03;;;;;;;;;;;9.80;99.90;;;;;;5045359;28;19968;-70
2022/03/30 12:00:31;;;;;;;;;;;9.80;99.90;;;;;;5042526;28;19928;-69
2022/03/30 12:03:00;;;;;;;;;;;9.80;99.90;;;;;;5044507;28;19928;-69
2022/03/30 12:05:26;;;;;;;;;;;9.80;99.90;;;;;;5044274;28;19921;-69
2022/03/30 12:07:54;;;;;;;;;;;9.80;99.90;;;;;;5044577;28;19921;-70
2022/03/30 12:10:27;;;;;;;;;;;9.90;99.90;;;;;;5042310;28;19921;-69
2022/03/30 12:12:54;;;;;;;;;;;9.80;99.90;;;;;;5044468;28;19921;-69
2022/03/30 12:15:21;;;;;;;;;;;9.70;99.90;;;;;;5044267;28;19936;-69
2022/03/30 12:17:51;;;;;;;;;;;9.70;99.90;;;;;;5044301;28;19928;-70
2022/03/30 12:20:23;;;;;;;;;;;9.80;99.90;;;;;;5044678;28;19928;-70
2022/03/30 12:22:54;;;;;;;;;;;9.70;99.90;;;;;;5044708;28;19921;-68
2022/03/30 12:25:21;;;;;;;;;;;9.80;99.90;;;;;;5043913;28;19955;-68
2022/03/30 12:27:47;;;;;;;;;;;9.90;99.90;;;;;;5044598;28;19927;-68
2022/03/30 12:30:14;;;;;;;;;;;9.90;99.90;;;;;;5044336;28;19920;-67
2022/03/30 12:32:40;;;;;;;;;;;10.00;99.90;;;;;;5043570;28;19921;-69
2022/03/30 12:35:08;;;;;;;;;;;10.00;99.90;;;;;;5036027;28;19931;-68
2022/03/30 12:37:36;;;;;;;;;;;10.10;99.90;;;;;;5024075;28;19927;-70
2022/03/30 12:40:11;;;;;;;;;;;10.10;99.90;;;;;;5023953;28;20227;-71
2022/03/30 12:42:38;;;;;;;;;;;10.00;99.90;;;;;;5024087;28;20268;-71
2022/03/30 12:45:10;;;;;;;;;;;10.00;99.90;;;;;;5023936;28;19921;-71
2022/03/30 12:47:38;;;;;;;;;;;10.10;99.90;;;;;;5024016;28;19984;-71
2022/03/30 12:50:06;;;;;;;;;;;10.00;99.90;;;;;;5023898;28;19921;-70
2022/03/30 12:52:37;;;;;;;;;;;10.00;99.90;;;;;;5023922;28;20247;-70
2022/03/30 12:55:14;;;;;;;;;;;10.00;99.90;;;;;;5023507;28;19922;-71
2022/03/30 12:57:50;;;;;;;;;;;10.00;99.90;;;;;;5023767;28;20279;-70
2022/03/30 13:00:18;;;;;;;;;;;10.00;99.90;;;;;;5023958;28;19930;-71
2022/03/30 13:02:44;;;;;;;;;;;10.00;99.90;;;;;;5023985;28;19967;-71
2022/03/30 13:05:23;;;;;;;;;;;10.00;99.90;;;;;;5023704;28;19922;-70
2022/03/30 13:07:52;;;;;;;;;;;9.90;99.90;;;;;;5023777;28;19922;-70
2022/03/30 13:10:20;;;;;;;;;;;9.90;99.90;;;;;;5038150;28;19921;-70
2022/03/30 13:12:49;;;;;;;;;;;9.90;99.90;;;;;;5043442;28;19928;-71
2022/03/30 13:15:17;;;;;;;;;;;9.90;99.90;;;;;;5043046;28;19943;-71
2022/03/30 13:18:03;;;;;;;;;;;9.90;99.90;;;;;;5043251;28;20217;-70
2022/03/30 13:20:31;;;;;;;;;;;9.90;99.90;;;;;;5043635;28;19928;-70
2022/03/30 13:22:59;;;;;;;;;;;9.80;99.90;;;;;;5043433;28;19921;-70
2022/03/30 13:25:27;;;;;;;;;;;9.70;99.90;;;;;;5042146;28;19921;-70
2022/03/30 13:27:54;;;;;;;;;;;9.60;99.90;;;;;;5043623;28;19927;-69
2022/03/30 13:30:21;;;;;;;;;;;9.60;99.90;;;;;;5043574;28;19955;-69
2022/03/30 13:32:48;;;;;;;;;;;9.50;99.90;;;;;;5043324;28;20148;-70
2022/03/30 13:35:14;;;;;;;;;;;9.50;99.90;;;;;;5042675;28;19921;-70
2022/03/30 13:37:41;;;;;;;;;;;9.30;99.90;;;;;;5042677;28;20204;-69
2022/03/30 13:40:09;;;;;;;;;;;9.30;99.90;;;;;;5042978;28;19921;-70
2022/03/30 13:42:36;;;;;;;;;;;9.30;99.90;;;;;;5043676;28;19920;-68
2022/03/30 13:45:03;;;;;;;;;;;9.30;99.90;;;;;;5046573;28;19922;-70
2022/03/30 13:47:30;;;;;;;;;;;9.30;99.90;;;;;;5046706;28;19921;-70
2022/03/30 13:49:56;;;;;;;;;;;9.30;99.90;;;;;;5046953;28;19922;-70
2022/03/30 13:52:24;;;;;;;;;;;9.30;99.90;;;;;;5046864;28;19931;-70
2022/03/30 13:54:51;;;;;;;;;;;9.30;99.90;;;;;;5046573;28;19928;-70
2022/03/30 13:57:19;;;;;;;;;;;9.30;99.90;;;;;;5046351;28;20164;-69
2022/03/30 13:59:45;;;;;;;;;;;9.30;99.90;;;;;;5046450;28;20142;-69
2022/03/30 14:02:12;;;;;;;;;;;9.20;99.90;;;;;;5046890;28;20124;-70
2022/03/30 14:04:39;;;;;;;;;;;9.20;99.90;;;;;;5046500;28;20267;-69
2022/03/30 14:07:06;;;;;;;;;;;9.10;99.90;;;;;;5045737;28;19921;-69
2022/03/30 14:09:34;;;;;;;;;;;9.10;99.90;;;;;;5046522;28;19928;-71
2022/03/30 14:12:00;;;;;;;;;;;9.00;99.90;;;;;;5046751;28;19946;-70
2022/03/30 14:14:29;;;;;;;;;;;9.00;99.90;;;;;;5046035;28;19927;-70
2022/03/30 14:16:58;;;;;;;;;;;8.90;99.90;;;;;;5046232;28;19928;-70
2022/03/30 14:19:25;;;;;;;;;;;8.90;99.90;;;;;;5045734;28;19929;-71
2022/03/30 14:21:51;;;;;;;;;;;8.90;99.90;;;;;;5046295;28;19976;-69
2022/03/30 14:24:18;;;;;;;;;;;8.90;99.90;;;;;;5046387;28;19921;-69
2022/03/30 14:26:45;;;;;;;;;;;8.80;99.90;;;;;;5045671;28;19991;-70
2022/03/30 14:29:11;;;;;;;;;;;8.70;99.90;;;;;;5045115;28;20001;-70
2022/03/30 14:31:39;;;;;;;;;;;8.70;99.90;;;;;;5044287;28;19935;-70
2022/03/30 14:34:06;;;;;;;;;;;8.60;99.90;;;;;;5046077;28;19943;-70
2022/03/30 14:36:32;;;;;;;;;;;8.60;99.90;;;;;;5045453;28;19932;-70
2022/03/30 14:38:59;;;;;;;;;;;8.60;99.90;;;;;;5045839;28;19921;-69